Drogeham, Netherlands
Current Conditions -  °F | °C
As of 12:25 AM on Thursday 23 Oct 2014 (Local Time) from EHLW Reporting Station
Overcast Overcast  
Wind Chill: 44°   Ceiling: 5700
Heat Index: 46°   Visibility: 6mi
Dew Point: 43°   Wind: 6mph
Humidity: 87%   Direction: 260°W
Pressure: 30.12"   Gusts: NA
Location:  53.2°N, 6.11°E
Report Text: EHLW 222225Z AUTO 26005KT 9999 OVC057 08/06 Q1020 BLU
Loading
Personal Weather Stations






























Interactive Weather Map
Tropical Storm Tracking
New forecast layout! Learn more

10-Day Weather Forecast

Advertisements
Track Severe Weather on mobile